Terminal Aerodrome Forecast
Issued by NWS Binghamton, NY

Home | Current Version | Previous Version | Text Only | Print | Product List | Glossary On
Versions: 1 2 3 4 5 6 7 8 9 10 11 12 13 14 15 16 17 18
000
FTUS41 KBGM 221100
TAFAVP
TAF
KAVP 221139Z 2212/2312 23007KT P6SM SCT150
     FM221900 23010KT P6SM BKN050 OVC090
     FM222300 22004KT P6SM OVC040 WS020/25043KT
     FM230900 22004KT P6SM BKN050=

USA.gov is the U.S. government's official web portal to all federal, state and local government web resources and services.